sensor_id;sensor_type;location;lat;lon;timestamp;P1;durP1;ratioP1;P2;durP2;ratioP2
2480;SDS011;57396;48.742;9.128;2023-01-10T00:00:23;1.10;;;0.90;;
2480;SDS011;57396;48.742;9.128;2023-01-10T00:02:50;1.20;;;0.93;;
2480;SDS011;57396;48.742;9.128;2023-01-10T00:05:16;1.37;;;0.90;;
2480;SDS011;57396;48.742;9.128;2023-01-10T00:07:42;1.40;;;1.00;;
2480;SDS011;57396;48.742;9.128;2023-01-10T00:10:08;1.50;;;1.00;;
2480;SDS011;57396;48.742;9.128;2023-01-10T00:12:34;1.30;;;0.87;;
2480;SDS011;57396;48.742;9.128;2023-01-10T00:15:18;1.63;;;0.93;;
2480;SDS011;57396;48.742;9.128;2023-01-10T00:17:44;2.07;;;1.00;;
2480;SDS011;57396;48.742;9.128;2023-01-10T00:20:09;1.10;;;0.90;;
2480;SDS011;57396;48.742;9.128;2023-01-10T00:22:35;1.17;;;1.03;;
2480;SDS011;57396;48.742;9.128;2023-01-10T00:25:01;1.00;;;0.90;;
2480;SDS011;57396;48.742;9.128;2023-01-10T00:27:26;1.30;;;1.00;;
2480;SDS011;57396;48.742;9.128;2023-01-10T00:29:52;1.40;;;1.10;;
2480;SDS011;57396;48.742;9.128;2023-01-10T00:32:21;2.53;;;0.97;;
2480;SDS011;57396;48.742;9.128;2023-01-10T00:34:46;1.20;;;0.87;;
2480;SDS011;57396;48.742;9.128;2023-01-10T00:37:12;1.00;;;0.80;;
2480;SDS011;57396;48.742;9.128;2023-01-10T00:39:38;2.43;;;1.00;;
2480;SDS011;57396;48.742;9.128;2023-01-10T00:42:03;1.10;;;0.90;;
2480;SDS011;57396;48.742;9.128;2023-01-10T00:44:48;2.17;;;1.07;;
2480;SDS011;57396;48.742;9.128;2023-01-10T00:47:13;1.17;;;1.00;;
2480;SDS011;57396;48.742;9.128;2023-01-10T00:49:39;1.50;;;0.90;;
2480;SDS011;57396;48.742;9.128;2023-01-10T00:52:05;1.30;;;1.10;;
2480;SDS011;57396;48.742;9.128;2023-01-10T00:54:30;1.93;;;1.10;;
2480;SDS011;57396;48.742;9.128;2023-01-10T00:56:56;1.50;;;1.40;;
2480;SDS011;57396;48.742;9.128;2023-01-10T00:59:21;1.30;;;1.20;;
2480;SDS011;57396;48.742;9.128;2023-01-10T01:01:47;1.30;;;1.13;;
2480;SDS011;57396;48.742;9.128;2023-01-10T01:04:13;2.27;;;1.07;;
2480;SDS011;57396;48.742;9.128;2023-01-10T01:06:38;1.20;;;1.00;;
2480;SDS011;57396;48.742;9.128;2023-01-10T01:09:03;1.10;;;1.00;;
2480;SDS011;57396;48.742;9.128;2023-01-10T01:11:29;1.73;;;1.10;;
2480;SDS011;57396;48.742;9.128;2023-01-10T01:13:54;2.60;;;1.30;;
2480;SDS011;57396;48.742;9.128;2023-01-10T01:16:20;3.17;;;1.17;;
2480;SDS011;57396;48.742;9.128;2023-01-10T01:18:46;1.30;;;1.20;;
2480;SDS011;57396;48.742;9.128;2023-01-10T01:21:12;1.40;;;1.23;;
2480;SDS011;57396;48.742;9.128;2023-01-10T01:23:37;1.87;;;1.20;;
2480;SDS011;57396;48.742;9.128;2023-01-10T01:26:03;2.13;;;1.20;;
2480;SDS011;57396;48.742;9.128;2023-01-10T01:28:30;1.10;;;0.93;;
2480;SDS011;57396;48.742;9.128;2023-01-10T01:30:55;1.27;;;1.17;;
2480;SDS011;57396;48.742;9.128;2023-01-10T01:33:21;1.87;;;1.00;;
2480;SDS011;57396;48.742;9.128;2023-01-10T01:35:47;1.00;;;0.87;;
2480;SDS011;57396;48.742;9.128;2023-01-10T01:38:14;1.00;;;0.80;;
2480;SDS011;57396;48.742;9.128;2023-01-10T01:40:40;1.13;;;0.93;;
2480;SDS011;57396;48.742;9.128;2023-01-10T01:43:18;2.07;;;1.30;;
2480;SDS011;57396;48.742;9.128;2023-01-10T01:45:46;1.20;;;0.97;;
2480;SDS011;57396;48.742;9.128;2023-01-10T01:48:19;1.07;;;0.87;;
2480;SDS011;57396;48.742;9.128;2023-01-10T01:50:54;1.00;;;0.90;;
2480;SDS011;57396;48.742;9.128;2023-01-10T01:53:34;1.13;;;0.83;;
2480;SDS011;57396;48.742;9.128;2023-01-10T01:56:05;1.93;;;0.70;;
2480;SDS011;57396;48.742;9.128;2023-01-10T01:59:16;1.40;;;0.87;;
2480;SDS011;57396;48.742;9.128;2023-01-10T02:01:23;2.73;;;1.10;;
2480;SDS011;57396;48.742;9.128;2023-01-10T02:03:50;1.30;;;0.90;;
2480;SDS011;57396;48.742;9.128;2023-01-10T02:06:19;1.20;;;0.90;;
2480;SDS011;57396;48.742;9.128;2023-01-10T02:08:47;1.10;;;0.70;;
2480;SDS011;57396;48.742;9.128;2023-01-10T02:11:16;1.20;;;1.10;;
2480;SDS011;57396;48.742;9.128;2023-01-10T02:13:41;0.90;;;0.80;;
2480;SDS011;57396;48.742;9.128;2023-01-10T02:16:08;1.33;;;0.73;;
2480;SDS011;57396;48.742;9.128;2023-01-10T02:18:34;1.30;;;1.00;;
2480;SDS011;57396;48.742;9.128;2023-01-10T02:21:04;3.00;;;1.30;;
2480;SDS011;57396;48.742;9.128;2023-01-10T02:23:39;1.10;;;0.90;;
2480;SDS011;57396;48.742;9.128;2023-01-10T02:26:27;1.90;;;1.17;;
2480;SDS011;57396;48.742;9.128;2023-01-10T02:45:41;1.00;;;0.90;;
2480;SDS011;57396;48.742;9.128;2023-01-10T02:48:10;1.53;;;0.90;;
2480;SDS011;57396;48.742;9.128;2023-01-10T02:53:53;1.13;;;1.03;;
2480;SDS011;57396;48.742;9.128;2023-01-10T03:04:22;2.03;;;0.70;;
2480;SDS011;57396;48.742;9.128;2023-01-10T03:12:29;3.17;;;1.00;;
2480;SDS011;57396;48.742;9.128;2023-01-10T03:14:56;1.87;;;1.13;;
2480;SDS011;57396;48.742;9.128;2023-01-10T03:17:23;2.90;;;1.37;;
2480;SDS011;57396;48.742;9.128;2023-01-10T03:19:50;4.90;;;1.50;;
2480;SDS011;57396;48.742;9.128;2023-01-10T03:22:18;2.40;;;1.70;;
2480;SDS011;57396;48.742;9.128;2023-01-10T03:24:45;5.03;;;1.50;;
2480;SDS011;57396;48.742;9.128;2023-01-10T03:27:14;3.87;;;1.73;;
2480;SDS011;57396;48.742;9.128;2023-01-10T03:32:30;5.43;;;2.00;;
2480;SDS011;57396;48.742;9.128;2023-01-10T03:34:57;6.20;;;1.30;;
2480;SDS011;57396;48.742;9.128;2023-01-10T03:37:37;4.90;;;1.83;;
2480;SDS011;57396;48.742;9.128;2023-01-10T03:40:15;3.77;;;1.93;;
2480;SDS011;57396;48.742;9.128;2023-01-10T03:45:53;3.60;;;1.73;;
2480;SDS011;57396;48.742;9.128;2023-01-10T03:48:20;5.73;;;2.03;;
2480;SDS011;57396;48.742;9.128;2023-01-10T03:50:47;2.27;;;1.60;;
2480;SDS011;57396;48.742;9.128;2023-01-10T03:53:13;5.50;;;2.60;;
2480;SDS011;57396;48.742;9.128;2023-01-10T03:55:39;3.67;;;1.90;;
2480;SDS011;57396;48.742;9.128;2023-01-10T03:58:05;7.37;;;1.70;;
2480;SDS011;57396;48.742;9.128;2023-01-10T04:00:31;1.67;;;1.30;;
2480;SDS011;57396;48.742;9.128;2023-01-10T04:02:57;1.93;;;1.27;;
2480;SDS011;57396;48.742;9.128;2023-01-10T04:05:23;11.60;;;1.40;;
2480;SDS011;57396;48.742;9.128;2023-01-10T04:07:49;3.63;;;1.43;;
2480;SDS011;57396;48.742;9.128;2023-01-10T04:10:14;3.20;;;1.40;;
2480;SDS011;57396;48.742;9.128;2023-01-10T04:12:40;5.93;;;1.40;;
2480;SDS011;57396;48.742;9.128;2023-01-10T04:15:06;1.80;;;1.30;;
2480;SDS011;57396;48.742;9.128;2023-01-10T04:17:31;5.47;;;1.50;;
2480;SDS011;57396;48.742;9.128;2023-01-10T04:19:57;4.37;;;1.63;;
2480;SDS011;57396;48.742;9.128;2023-01-10T04:22:22;2.33;;;1.43;;
2480;SDS011;57396;48.742;9.128;2023-01-10T04:24:48;2.80;;;1.90;;
2480;SDS011;57396;48.742;9.128;2023-01-10T04:27:15;4.93;;;2.00;;
2480;SDS011;57396;48.742;9.128;2023-01-10T04:29:40;6.80;;;1.50;;
2480;SDS011;57396;48.742;9.128;2023-01-10T04:32:06;4.40;;;2.00;;
2480;SDS011;57396;48.742;9.128;2023-01-10T04:34:31;3.47;;;1.80;;
2480;SDS011;57396;48.742;9.128;2023-01-10T04:36:57;2.50;;;1.30;;
2480;SDS011;57396;48.742;9.128;2023-01-10T04:39:22;4.77;;;1.80;;
2480;SDS011;57396;48.742;9.128;2023-01-10T04:41:48;3.30;;;1.70;;
2480;SDS011;57396;48.742;9.128;2023-01-10T04:44:13;4.40;;;2.00;;
2480;SDS011;57396;48.742;9.128;2023-01-10T04:46:39;4.83;;;1.43;;
2480;SDS011;57396;48.742;9.128;2023-01-10T04:49:04;7.43;;;1.97;;
2480;SDS011;57396;48.742;9.128;2023-01-10T04:51:30;4.63;;;1.57;;
2480;SDS011;57396;48.742;9.128;2023-01-10T04:53:55;2.13;;;1.27;;
2480;SDS011;57396;48.742;9.128;2023-01-10T04:56:21;4.33;;;1.60;;
2480;SDS011;57396;48.742;9.128;2023-01-10T04:58:47;2.13;;;1.33;;
2480;SDS011;57396;48.742;9.128;2023-01-10T05:01:15;6.33;;;1.83;;
2480;SDS011;57396;48.742;9.128;2023-01-10T05:03:41;8.57;;;1.57;;
2480;SDS011;57396;48.742;9.128;2023-01-10T05:06:07;2.80;;;1.43;;
2480;SDS011;57396;48.742;9.128;2023-01-10T05:08:32;9.40;;;2.93;;
2480;SDS011;57396;48.742;9.128;2023-01-10T05:10:58;3.73;;;1.50;;
2480;SDS011;57396;48.742;9.128;2023-01-10T05:13:23;9.77;;;1.73;;
2480;SDS011;57396;48.742;9.128;2023-01-10T05:15:52;2.90;;;1.50;;
2480;SDS011;57396;48.742;9.128;2023-01-10T05:18:19;5.20;;;1.70;;
2480;SDS011;57396;48.742;9.128;2023-01-10T05:20:44;5.07;;;1.60;;
2480;SDS011;57396;48.742;9.128;2023-01-10T05:23:10;7.20;;;2.00;;
2480;SDS011;57396;48.742;9.128;2023-01-10T05:25:35;5.33;;;1.90;;
2480;SDS011;57396;48.742;9.128;2023-01-10T05:28:01;3.30;;;1.80;;
2480;SDS011;57396;48.742;9.128;2023-01-10T05:30:26;8.83;;;2.10;;
2480;SDS011;57396;48.742;9.128;2023-01-10T05:32:52;6.20;;;1.70;;
2480;SDS011;57396;48.742;9.128;2023-01-10T05:35:17;6.07;;;1.97;;
2480;SDS011;57396;48.742;9.128;2023-01-10T05:37:42;6.70;;;1.77;;
2480;SDS011;57396;48.742;9.128;2023-01-10T05:40:08;4.90;;;1.93;;
2480;SDS011;57396;48.742;9.128;2023-01-10T05:42:34;4.17;;;1.90;;
2480;SDS011;57396;48.742;9.128;2023-01-10T05:44:59;10.03;;;2.00;;
2480;SDS011;57396;48.742;9.128;2023-01-10T05:47:25;7.43;;;2.03;;
2480;SDS011;57396;48.742;9.128;2023-01-10T05:49:51;5.77;;;2.00;;
2480;SDS011;57396;48.742;9.128;2023-01-10T05:52:16;7.90;;;2.10;;
2480;SDS011;57396;48.742;9.128;2023-01-10T05:54:42;9.53;;;2.43;;
2480;SDS011;57396;48.742;9.128;2023-01-10T05:57:07;7.07;;;1.93;;
2480;SDS011;57396;48.742;9.128;2023-01-10T05:59:33;6.03;;;2.23;;
2480;SDS011;57396;48.742;9.128;2023-01-10T06:01:58;9.63;;;2.30;;
2480;SDS011;57396;48.742;9.128;2023-01-10T06:04:23;10.17;;;1.90;;
2480;SDS011;57396;48.742;9.128;2023-01-10T06:06:50;7.63;;;2.03;;
2480;SDS011;57396;48.742;9.128;2023-01-10T06:09:15;7.47;;;2.20;;
2480;SDS011;57396;48.742;9.128;2023-01-10T06:11:41;5.80;;;1.80;;
2480;SDS011;57396;48.742;9.128;2023-01-10T06:14:06;6.67;;;1.87;;
2480;SDS011;57396;48.742;9.128;2023-01-10T06:16:32;8.43;;;2.27;;
2480;SDS011;57396;48.742;9.128;2023-01-10T06:18:57;5.33;;;2.20;;
2480;SDS011;57396;48.742;9.128;2023-01-10T06:21:23;6.80;;;1.93;;
2480;SDS011;57396;48.742;9.128;2023-01-10T06:23:48;6.50;;;2.10;;
2480;SDS011;57396;48.742;9.128;2023-01-10T06:26:14;12.57;;;2.90;;
2480;SDS011;57396;48.742;9.128;2023-01-10T06:28:39;7.27;;;2.23;;
2480;SDS011;57396;48.742;9.128;2023-01-10T06:31:07;6.03;;;1.93;;
2480;SDS011;57396;48.742;9.128;2023-01-10T06:33:33;6.03;;;1.87;;
2480;SDS011;57396;48.742;9.128;2023-01-10T06:35:59;6.97;;;2.30;;
2480;SDS011;57396;48.742;9.128;2023-01-10T06:38:24;6.67;;;1.70;;
2480;SDS011;57396;48.742;9.128;2023-01-10T06:40:50;10.23;;;1.73;;
2480;SDS011;57396;48.742;9.128;2023-01-10T06:43:15;7.73;;;1.80;;
2480;SDS011;57396;48.742;9.128;2023-01-10T06:45:40;9.37;;;2.20;;
2480;SDS011;57396;48.742;9.128;2023-01-10T06:48:06;15.97;;;2.87;;
2480;SDS011;57396;48.742;9.128;2023-01-10T06:50:31;4.23;;;1.77;;
2480;SDS011;57396;48.742;9.128;2023-01-10T06:52:57;11.03;;;2.40;;
2480;SDS011;57396;48.742;9.128;2023-01-10T06:55:24;8.40;;;2.23;;
2480;SDS011;57396;48.742;9.128;2023-01-10T06:57:56;12.93;;;2.70;;
2480;SDS011;57396;48.742;9.128;2023-01-10T07:00:23;6.93;;;2.00;;
2480;SDS011;57396;48.742;9.128;2023-01-10T07:02:49;8.67;;;2.07;;
2480;SDS011;57396;48.742;9.128;2023-01-10T07:05:14;6.17;;;2.00;;
2480;SDS011;57396;48.742;9.128;2023-01-10T07:07:40;6.93;;;1.90;;
2480;SDS011;57396;48.742;9.128;2023-01-10T07:10:05;5.00;;;1.67;;
2480;SDS011;57396;48.742;9.128;2023-01-10T07:12:31;3.33;;;1.70;;
2480;SDS011;57396;48.742;9.128;2023-01-10T07:14:56;8.90;;;2.30;;
2480;SDS011;57396;48.742;9.128;2023-01-10T07:17:22;7.70;;;2.23;;
2480;SDS011;57396;48.742;9.128;2023-01-10T07:19:47;10.47;;;2.60;;
2480;SDS011;57396;48.742;9.128;2023-01-10T07:22:13;9.23;;;2.60;;
2480;SDS011;57396;48.742;9.128;2023-01-10T07:24:38;7.87;;;2.23;;
2480;SDS011;57396;48.742;9.128;2023-01-10T07:27:04;10.27;;;3.37;;
2480;SDS011;57396;48.742;9.128;2023-01-10T07:29:29;16.77;;;3.70;;
2480;SDS011;57396;48.742;9.128;2023-01-10T07:31:55;18.53;;;5.20;;
2480;SDS011;57396;48.742;9.128;2023-01-10T07:34:20;12.33;;;3.57;;
2480;SDS011;57396;48.742;9.128;2023-01-10T07:36:45;15.30;;;3.53;;
2480;SDS011;57396;48.742;9.128;2023-01-10T07:39:11;9.30;;;2.70;;
2480;SDS011;57396;48.742;9.128;2023-01-10T07:41:36;9.13;;;2.90;;
2480;SDS011;57396;48.742;9.128;2023-01-10T07:44:02;14.20;;;4.03;;
2480;SDS011;57396;48.742;9.128;2023-01-10T07:46:27;7.37;;;2.57;;
2480;SDS011;57396;48.742;9.128;2023-01-10T07:48:53;5.60;;;2.13;;
2480;SDS011;57396;48.742;9.128;2023-01-10T07:51:18;10.67;;;2.87;;
2480;SDS011;57396;48.742;9.128;2023-01-10T07:53:44;11.03;;;2.73;;
2480;SDS011;57396;48.742;9.128;2023-01-10T07:56:09;12.03;;;3.00;;
2480;SDS011;57396;48.742;9.128;2023-01-10T07:58:35;11.20;;;3.07;;
2480;SDS011;57396;48.742;9.128;2023-01-10T08:01:01;8.73;;;2.10;;
2480;SDS011;57396;48.742;9.128;2023-01-10T08:03:28;11.63;;;2.77;;
2480;SDS011;57396;48.742;9.128;2023-01-10T08:06:01;9.57;;;2.43;;
2480;SDS011;57396;48.742;9.128;2023-01-10T08:08:27;7.70;;;2.63;;
2480;SDS011;57396;48.742;9.128;2023-01-10T08:10:54;12.40;;;3.80;;
2480;SDS011;57396;48.742;9.128;2023-01-10T08:13:19;13.40;;;3.30;;
2480;SDS011;57396;48.742;9.128;2023-01-10T08:15:45;12.10;;;2.97;;
2480;SDS011;57396;48.742;9.128;2023-01-10T08:18:14;13.23;;;2.80;;
2480;SDS011;57396;48.742;9.128;2023-01-10T08:20:39;9.60;;;3.00;;
2480;SDS011;57396;48.742;9.128;2023-01-10T08:23:05;17.83;;;4.10;;
2480;SDS011;57396;48.742;9.128;2023-01-10T08:25:30;10.07;;;3.00;;
2480;SDS011;57396;48.742;9.128;2023-01-10T08:27:56;11.97;;;2.90;;
2480;SDS011;57396;48.742;9.128;2023-01-10T08:30:21;14.97;;;2.93;;
2480;SDS011;57396;48.742;9.128;2023-01-10T08:32:47;8.27;;;2.33;;
2480;SDS011;57396;48.742;9.128;2023-01-10T08:35:13;9.90;;;2.23;;
2480;SDS011;57396;48.742;9.128;2023-01-10T08:37:38;9.70;;;2.27;;
2480;SDS011;57396;48.742;9.128;2023-01-10T08:40:04;4.23;;;1.80;;
2480;SDS011;57396;48.742;9.128;2023-01-10T08:42:29;8.20;;;2.47;;
2480;SDS011;57396;48.742;9.128;2023-01-10T08:44:55;10.80;;;2.03;;
2480;SDS011;57396;48.742;9.128;2023-01-10T08:47:20;10.43;;;2.40;;
2480;SDS011;57396;48.742;9.128;2023-01-10T08:49:46;5.53;;;2.17;;
2480;SDS011;57396;48.742;9.128;2023-01-10T08:52:13;15.23;;;2.70;;
2480;SDS011;57396;48.742;9.128;2023-01-10T08:54:39;6.90;;;1.90;;
2480;SDS011;57396;48.742;9.128;2023-01-10T08:57:05;10.87;;;2.40;;
2480;SDS011;57396;48.742;9.128;2023-01-10T08:59:30;11.60;;;2.67;;
2480;SDS011;57396;48.742;9.128;2023-01-10T09:01:56;13.50;;;2.63;;
2480;SDS011;57396;48.742;9.128;2023-01-10T09:04:22;11.07;;;2.60;;
2480;SDS011;57396;48.742;9.128;2023-01-10T09:06:48;8.73;;;2.20;;
2480;SDS011;57396;48.742;9.128;2023-01-10T09:09:14;4.80;;;2.93;;
2480;SDS011;57396;48.742;9.128;2023-01-10T09:11:39;12.00;;;2.40;;
2480;SDS011;57396;48.742;9.128;2023-01-10T09:14:05;7.00;;;2.33;;
2480;SDS011;57396;48.742;9.128;2023-01-10T09:16:31;6.47;;;2.20;;
2480;SDS011;57396;48.742;9.128;2023-01-10T09:18:57;10.23;;;2.43;;
2480;SDS011;57396;48.742;9.128;2023-01-10T09:21:22;13.17;;;2.60;;
2480;SDS011;57396;48.742;9.128;2023-01-10T09:23:47;12.03;;;3.03;;
2480;SDS011;57396;48.742;9.128;2023-01-10T09:26:13;9.10;;;2.20;;
2480;SDS011;57396;48.742;9.128;2023-01-10T09:28:38;6.50;;;2.43;;
2480;SDS011;57396;48.742;9.128;2023-01-10T09:31:05;5.60;;;2.40;;
2480;SDS011;57396;48.742;9.128;2023-01-10T09:33:32;11.00;;;2.70;;
2480;SDS011;57396;48.742;9.128;2023-01-10T09:35:58;4.83;;;2.17;;
2480;SDS011;57396;48.742;9.128;2023-01-10T09:38:24;6.77;;;2.23;;
2480;SDS011;57396;48.742;9.128;2023-01-10T09:40:56;11.37;;;2.67;;
2480;SDS011;57396;48.742;9.128;2023-01-10T09:51:48;7.27;;;2.63;;
2480;SDS011;57396;48.742;9.128;2023-01-10T09:54:20;7.87;;;2.83;;
2480;SDS011;57396;48.742;9.128;2023-01-10T09:56:48;8.17;;;2.70;;
2480;SDS011;57396;48.742;9.128;2023-01-10T09:59:17;10.50;;;2.87;;
2480;SDS011;57396;48.742;9.128;2023-01-10T10:01:45;5.60;;;2.57;;
2480;SDS011;57396;48.742;9.128;2023-01-10T10:06:51;9.57;;;2.53;;
2480;SDS011;57396;48.742;9.128;2023-01-10T10:09:22;9.17;;;2.77;;
2480;SDS011;57396;48.742;9.128;2023-01-10T10:11:53;9.70;;;2.37;;
2480;SDS011;57396;48.742;9.128;2023-01-10T10:28:15;2.90;;;2.07;;
2480;SDS011;57396;48.742;9.128;2023-01-10T10:30:55;5.50;;;2.27;;
2480;SDS011;57396;48.742;9.128;2023-01-10T10:36:10;6.80;;;2.03;;
2480;SDS011;57396;48.742;9.128;2023-01-10T10:38:39;4.80;;;2.60;;
2480;SDS011;57396;48.742;9.128;2023-01-10T10:41:12;4.93;;;1.97;;
2480;SDS011;57396;48.742;9.128;2023-01-10T10:43:41;3.67;;;1.87;;
2480;SDS011;57396;48.742;9.128;2023-01-10T10:46:13;6.83;;;2.20;;
2480;SDS011;57396;48.742;9.128;2023-01-10T10:48:40;3.93;;;1.83;;
2480;SDS011;57396;48.742;9.128;2023-01-10T10:51:16;5.23;;;2.03;;
2480;SDS011;57396;48.742;9.128;2023-01-10T10:53:50;9.80;;;2.40;;
2480;SDS011;57396;48.742;9.128;2023-01-10T10:56:17;6.53;;;1.70;;
2480;SDS011;57396;48.742;9.128;2023-01-10T10:58:45;12.67;;;2.93;;
2480;SDS011;57396;48.742;9.128;2023-01-10T11:01:13;9.27;;;2.00;;
2480;SDS011;57396;48.742;9.128;2023-01-10T11:03:46;9.40;;;1.90;;
2480;SDS011;57396;48.742;9.128;2023-01-10T11:06:15;4.27;;;1.60;;
2480;SDS011;57396;48.742;9.128;2023-01-10T11:08:41;5.67;;;1.90;;
2480;SDS011;57396;48.742;9.128;2023-01-10T11:14:04;3.80;;;1.70;;
2480;SDS011;57396;48.742;9.128;2023-01-10T11:16:36;4.63;;;2.10;;
2480;SDS011;57396;48.742;9.128;2023-01-10T11:21:45;6.93;;;1.90;;
2480;SDS011;57396;48.742;9.128;2023-01-10T11:26:55;10.20;;;2.57;;
2480;SDS011;57396;48.742;9.128;2023-01-10T11:31:56;14.53;;;2.50;;
2480;SDS011;57396;48.742;9.128;2023-01-10T11:34:28;5.03;;;2.07;;
2480;SDS011;57396;48.742;9.128;2023-01-10T11:36:57;4.67;;;1.83;;
2480;SDS011;57396;48.742;9.128;2023-01-10T11:39:25;3.43;;;1.70;;
2480;SDS011;57396;48.742;9.128;2023-01-10T11:41:52;5.50;;;1.83;;
2480;SDS011;57396;48.742;9.128;2023-01-10T11:44:26;10.97;;;2.50;;
2480;SDS011;57396;48.742;9.128;2023-01-10T11:46:55;9.00;;;2.50;;
2480;SDS011;57396;48.742;9.128;2023-01-10T11:51:57;6.90;;;2.50;;
2480;SDS011;57396;48.742;9.128;2023-01-10T11:54:25;7.10;;;2.70;;
2480;SDS011;57396;48.742;9.128;2023-01-10T11:57:08;12.20;;;2.73;;
2480;SDS011;57396;48.742;9.128;2023-01-10T11:59:48;6.33;;;2.27;;
2480;SDS011;57396;48.742;9.128;2023-01-10T12:02:19;8.70;;;2.17;;
2480;SDS011;57396;48.742;9.128;2023-01-10T12:04:47;8.33;;;2.00;;
2480;SDS011;57396;48.742;9.128;2023-01-10T12:07:14;5.23;;;1.50;;
2480;SDS011;57396;48.742;9.128;2023-01-10T12:09:43;5.03;;;1.90;;
2480;SDS011;57396;48.742;9.128;2023-01-10T12:12:24;16.07;;;2.37;;
2480;SDS011;57396;48.742;9.128;2023-01-10T12:14:58;8.67;;;2.10;;
2480;SDS011;57396;48.742;9.128;2023-01-10T12:17:44;10.73;;;2.07;;
2480;SDS011;57396;48.742;9.128;2023-01-10T12:20:11;7.70;;;2.00;;
2480;SDS011;57396;48.742;9.128;2023-01-10T12:22:44;11.23;;;2.77;;
2480;SDS011;57396;48.742;9.128;2023-01-10T12:27:45;6.27;;;1.60;;
2480;SDS011;57396;48.742;9.128;2023-01-10T12:32:59;5.93;;;1.73;;
2480;SDS011;57396;48.742;9.128;2023-01-10T12:35:35;6.00;;;1.70;;
2480;SDS011;57396;48.742;9.128;2023-01-10T12:38:17;4.60;;;1.53;;
2480;SDS011;57396;48.742;9.128;2023-01-10T12:41:22;7.23;;;1.50;;
2480;SDS011;57396;48.742;9.128;2023-01-10T12:44:13;2.83;;;1.33;;
2480;SDS011;57396;48.742;9.128;2023-01-10T12:51:46;10.23;;;2.10;;
2480;SDS011;57396;48.742;9.128;2023-01-10T12:54:14;4.77;;;1.40;;
2480;SDS011;57396;48.742;9.128;2023-01-10T12:56:41;5.97;;;1.57;;
2480;SDS011;57396;48.742;9.128;2023-01-10T12:59:14;5.37;;;1.80;;
2480;SDS011;57396;48.742;9.128;2023-01-10T13:01:42;3.63;;;1.40;;
2480;SDS011;57396;48.742;9.128;2023-01-10T13:04:14;3.87;;;1.27;;
2480;SDS011;57396;48.742;9.128;2023-01-10T13:06:42;6.13;;;1.60;;
2480;SDS011;57396;48.742;9.128;2023-01-10T13:09:11;5.20;;;1.20;;
2480;SDS011;57396;48.742;9.128;2023-01-10T13:14:15;4.30;;;1.60;;
2480;SDS011;57396;48.742;9.128;2023-01-10T13:19:23;5.47;;;1.43;;
2480;SDS011;57396;48.742;9.128;2023-01-10T13:21:54;6.80;;;1.60;;
2480;SDS011;57396;48.742;9.128;2023-01-10T13:24:37;9.30;;;1.47;;
2480;SDS011;57396;48.742;9.128;2023-01-10T13:27:02;6.80;;;1.80;;
2480;SDS011;57396;48.742;9.128;2023-01-10T13:29:36;9.67;;;1.70;;
2480;SDS011;57396;48.742;9.128;2023-01-10T13:32:14;4.57;;;1.67;;
2480;SDS011;57396;48.742;9.128;2023-01-10T13:34:40;8.63;;;1.57;;
2480;SDS011;57396;48.742;9.128;2023-01-10T13:37:13;6.67;;;3.23;;
2480;SDS011;57396;48.742;9.128;2023-01-10T13:39:53;6.63;;;2.40;;
2480;SDS011;57396;48.742;9.128;2023-01-10T13:42:26;5.20;;;1.57;;
2480;SDS011;57396;48.742;9.128;2023-01-10T13:45:29;6.97;;;1.57;;
2480;SDS011;57396;48.742;9.128;2023-01-10T13:47:59;9.40;;;1.77;;
2480;SDS011;57396;48.742;9.128;2023-01-10T13:55:32;5.00;;;1.77;;
2480;SDS011;57396;48.742;9.128;2023-01-10T14:01:16;6.77;;;1.70;;
2480;SDS011;57396;48.742;9.128;2023-01-10T14:04:25;4.40;;;1.50;;
2480;SDS011;57396;48.742;9.128;2023-01-10T14:06:53;6.13;;;1.97;;
2480;SDS011;57396;48.742;9.128;2023-01-10T14:12:07;8.27;;;1.60;;
2480;SDS011;57396;48.742;9.128;2023-01-10T14:14:36;4.17;;;1.63;;
2480;SDS011;57396;48.742;9.128;2023-01-10T14:17:14;6.23;;;1.70;;
2480;SDS011;57396;48.742;9.128;2023-01-10T14:19:46;4.33;;;1.70;;
2480;SDS011;57396;48.742;9.128;2023-01-10T14:22:26;5.00;;;1.60;;
2480;SDS011;57396;48.742;9.128;2023-01-10T14:24:55;5.83;;;2.10;;
2480;SDS011;57396;48.742;9.128;2023-01-10T14:27:21;5.17;;;1.47;;
2480;SDS011;57396;48.742;9.128;2023-01-10T14:29:48;4.97;;;1.40;;
2480;SDS011;57396;48.742;9.128;2023-01-10T14:32:22;9.93;;;1.70;;
2480;SDS011;57396;48.742;9.128;2023-01-10T14:34:54;7.80;;;1.60;;
2480;SDS011;57396;48.742;9.128;2023-01-10T14:37:24;4.27;;;1.40;;
2480;SDS011;57396;48.742;9.128;2023-01-10T14:39:52;6.83;;;1.70;;
2480;SDS011;57396;48.742;9.128;2023-01-10T14:42:20;4.40;;;1.30;;
2480;SDS011;57396;48.742;9.128;2023-01-10T14:44:58;8.27;;;1.57;;
2480;SDS011;57396;48.742;9.128;2023-01-10T14:49:54;11.03;;;1.80;;
2480;SDS011;57396;48.742;9.128;2023-01-10T14:52:23;8.87;;;2.37;;
2480;SDS011;57396;48.742;9.128;2023-01-10T14:54:53;8.07;;;2.00;;
2480;SDS011;57396;48.742;9.128;2023-01-10T14:57:26;6.30;;;1.50;;
2480;SDS011;57396;48.742;9.128;2023-01-10T15:00:00;6.23;;;1.73;;
2480;SDS011;57396;48.742;9.128;2023-01-10T15:02:29;13.97;;;2.20;;
2480;SDS011;57396;48.742;9.128;2023-01-10T15:04:58;8.03;;;2.40;;
2480;SDS011;57396;48.742;9.128;2023-01-10T15:07:25;4.07;;;1.63;;
2480;SDS011;57396;48.742;9.128;2023-01-10T15:09:53;8.80;;;1.87;;
2480;SDS011;57396;48.742;9.128;2023-01-10T15:12:21;9.20;;;2.33;;
2480;SDS011;57396;48.742;9.128;2023-01-10T15:14:47;5.50;;;1.80;;
2480;SDS011;57396;48.742;9.128;2023-01-10T15:17:15;5.97;;;1.57;;
2480;SDS011;57396;48.742;9.128;2023-01-10T15:19:44;10.53;;;2.37;;
2480;SDS011;57396;48.742;9.128;2023-01-10T15:22:17;5.83;;;1.93;;
2480;SDS011;57396;48.742;9.128;2023-01-10T15:24:57;8.10;;;2.10;;
2480;SDS011;57396;48.742;9.128;2023-01-10T15:27:23;4.37;;;2.00;;
2480;SDS011;57396;48.742;9.128;2023-01-10T15:29:50;9.83;;;2.20;;
2480;SDS011;57396;48.742;9.128;2023-01-10T15:32:19;6.57;;;2.17;;
2480;SDS011;57396;48.742;9.128;2023-01-10T15:34:48;7.07;;;2.03;;
2480;SDS011;57396;48.742;9.128;2023-01-10T15:37:18;5.50;;;2.20;;
2480;SDS011;57396;48.742;9.128;2023-01-10T15:39:46;9.10;;;2.10;;
2480;SDS011;57396;48.742;9.128;2023-01-10T15:42:12;8.50;;;2.33;;
2480;SDS011;57396;48.742;9.128;2023-01-10T15:44:44;10.23;;;2.10;;
2480;SDS011;57396;48.742;9.128;2023-01-10T15:52:55;11.50;;;3.10;;
2480;SDS011;57396;48.742;9.128;2023-01-10T16:01:03;12.20;;;2.93;;
2480;SDS011;57396;48.742;9.128;2023-01-10T16:03:33;11.70;;;2.80;;
2480;SDS011;57396;48.742;9.128;2023-01-10T16:06:00;7.93;;;2.60;;
2480;SDS011;57396;48.742;9.128;2023-01-10T16:08:30;5.57;;;2.40;;
2480;SDS011;57396;48.742;9.128;2023-01-10T16:10:57;7.97;;;2.30;;
2480;SDS011;57396;48.742;9.128;2023-01-10T16:13:24;8.40;;;2.77;;
2480;SDS011;57396;48.742;9.128;2023-01-10T16:15:56;9.63;;;2.27;;
2480;SDS011;57396;48.742;9.128;2023-01-10T16:18:23;8.77;;;2.30;;
2480;SDS011;57396;48.742;9.128;2023-01-10T16:20:49;14.67;;;2.13;;
2480;SDS011;57396;48.742;9.128;2023-01-10T16:23:19;6.30;;;2.77;;
2480;SDS011;57396;48.742;9.128;2023-01-10T16:25:54;8.47;;;2.83;;
2480;SDS011;57396;48.742;9.128;2023-01-10T16:28:22;11.50;;;3.40;;
2480;SDS011;57396;48.742;9.128;2023-01-10T16:30:48;9.20;;;3.27;;
2480;SDS011;57396;48.742;9.128;2023-01-10T16:33:15;9.17;;;3.20;;
2480;SDS011;57396;48.742;9.128;2023-01-10T16:35:45;9.33;;;2.93;;
2480;SDS011;57396;48.742;9.128;2023-01-10T16:38:11;9.07;;;2.80;;
2480;SDS011;57396;48.742;9.128;2023-01-10T16:40:41;10.13;;;2.83;;
2480;SDS011;57396;48.742;9.128;2023-01-10T16:43:09;4.47;;;2.50;;
2480;SDS011;57396;48.742;9.128;2023-01-10T16:45:49;7.80;;;2.87;;
2480;SDS011;57396;48.742;9.128;2023-01-10T16:48:16;10.03;;;2.53;;
2480;SDS011;57396;48.742;9.128;2023-01-10T16:50:42;11.50;;;3.03;;
2480;SDS011;57396;48.742;9.128;2023-01-10T16:53:11;14.23;;;3.07;;
2480;SDS011;57396;48.742;9.128;2023-01-10T16:58:03;9.43;;;3.00;;
2480;SDS011;57396;48.742;9.128;2023-01-10T17:00:28;7.10;;;2.50;;
2480;SDS011;57396;48.742;9.128;2023-01-10T17:02:54;6.90;;;2.50;;
2480;SDS011;57396;48.742;9.128;2023-01-10T17:05:20;11.93;;;2.40;;
2480;SDS011;57396;48.742;9.128;2023-01-10T17:07:45;7.27;;;2.57;;